sensor_id;sensor_type;location;lat;lon;timestamp;pressure;altitude;pressure_sealevel;temperature;humidity
6090;BME280;3073;42.660;23.316;2023-02-02T00:01:11;94579.78;;;5.56;67.95
6090;BME280;3073;42.660;23.316;2023-02-02T00:03:41;94590.47;;;5.58;68.02
6090;BME280;3073;42.660;23.316;2023-02-02T00:06:08;94583.06;;;5.63;67.41
6090;BME280;3073;42.660;23.316;2023-02-02T00:08:35;94588.72;;;5.59;67.82
6090;BME280;3073;42.660;23.316;2023-02-02T00:11:03;94586.97;;;5.59;68.70
6090;BME280;3073;42.660;23.316;2023-02-02T00:13:30;94577.91;;;5.45;68.17
6090;BME280;3073;42.660;23.316;2023-02-02T00:15:57;94575.81;;;5.36;68.71
6090;BME280;3073;42.660;23.316;2023-02-02T00:18:24;94574.28;;;5.28;68.55
6090;BME280;3073;42.660;23.316;2023-02-02T00:20:52;94572.84;;;5.45;68.70
6090;BME280;3073;42.660;23.316;2023-02-02T00:23:19;94570.44;;;5.19;67.85
6090;BME280;3073;42.660;23.316;2023-02-02T00:25:48;94576.63;;;5.23;68.82
6090;BME280;3073;42.660;23.316;2023-02-02T00:28:16;94583.88;;;5.13;69.55
6090;BME280;3073;42.660;23.316;2023-02-02T00:30:42;94578.38;;;5.23;69.95
6090;BME280;3073;42.660;23.316;2023-02-02T00:33:10;94576.00;;;5.34;70.16
6090;BME280;3073;42.660;23.316;2023-02-02T00:35:40;94581.84;;;5.35;69.43
6090;BME280;3073;42.660;23.316;2023-02-02T00:38:09;94588.63;;;5.34;70.02
6090;BME280;3073;42.660;23.316;2023-02-02T00:40:36;94596.22;;;5.34;69.80
6090;BME280;3073;42.660;23.316;2023-02-02T00:43:03;94596.88;;;5.23;70.86
6090;BME280;3073;42.660;23.316;2023-02-02T00:45:30;94592.44;;;5.12;71.13
6090;BME280;3073;42.660;23.316;2023-02-02T00:47:56;94598.25;;;5.19;71.89
6090;BME280;3073;42.660;23.316;2023-02-02T00:50:23;94598.25;;;5.12;72.59
6090;BME280;3073;42.660;23.316;2023-02-02T00:52:49;94586.22;;;5.08;74.52
6090;BME280;3073;42.660;23.316;2023-02-02T00:55:18;94596.31;;;5.14;74.39
6090;BME280;3073;42.660;23.316;2023-02-02T00:57:46;94596.31;;;5.08;74.14
6090;BME280;3073;42.660;23.316;2023-02-02T01:00:16;94595.38;;;5.02;77.06
6090;BME280;3073;42.660;23.316;2023-02-02T01:02:43;94587.81;;;4.96;78.79
6090;BME280;3073;42.660;23.316;2023-02-02T01:05:11;94581.59;;;4.92;79.87
6090;BME280;3073;42.660;23.316;2023-02-02T01:07:38;94579.97;;;5.10;80.78
6090;BME280;3073;42.660;23.316;2023-02-02T01:10:08;94573.00;;;5.06;81.33
6090;BME280;3073;42.660;23.316;2023-02-02T01:12:40;94569.50;;;5.00;82.43
6090;BME280;3073;42.660;23.316;2023-02-02T01:15:08;94569.50;;;5.07;81.94
6090;BME280;3073;42.660;23.316;2023-02-02T01:17:36;94565.97;;;5.08;81.94
6090;BME280;3073;42.660;23.316;2023-02-02T01:20:05;94562.94;;;4.93;83.33
6090;BME280;3073;42.660;23.316;2023-02-02T01:22:32;94552.41;;;4.96;84.06
6090;BME280;3073;42.660;23.316;2023-02-02T01:24:59;94558.03;;;5.04;81.86
6090;BME280;3073;42.660;23.316;2023-02-02T01:27:26;94559.19;;;5.02;81.35
6090;BME280;3073;42.660;23.316;2023-02-02T01:29:54;94561.97;;;4.87;81.46
6090;BME280;3073;42.660;23.316;2023-02-02T01:32:21;94557.56;;;4.70;81.45
6090;BME280;3073;42.660;23.316;2023-02-02T01:34:48;94547.81;;;4.80;81.16
6090;BME280;3073;42.660;23.316;2023-02-02T01:37:15;94543.50;;;4.87;81.70
6090;BME280;3073;42.660;23.316;2023-02-02T01:39:42;94552.44;;;4.89;81.12
6090;BME280;3073;42.660;23.316;2023-02-02T01:42:11;94548.53;;;5.00;81.31
6090;BME280;3073;42.660;23.316;2023-02-02T01:45:11;94539.38;;;4.99;81.04
6090;BME280;3073;42.660;23.316;2023-02-02T01:47:42;94543.50;;;4.87;81.74
6090;BME280;3073;42.660;23.316;2023-02-02T01:50:14;94538.09;;;4.83;81.95
6090;BME280;3073;42.660;23.316;2023-02-02T01:52:42;94535.75;;;4.82;82.59
6090;BME280;3073;42.660;23.316;2023-02-02T01:55:13;94526.44;;;4.69;83.52
6090;BME280;3073;42.660;23.316;2023-02-02T01:57:45;94532.44;;;4.81;83.66
6090;BME280;3073;42.660;23.316;2023-02-02T02:00:15;94530.69;;;4.82;83.79
6090;BME280;3073;42.660;23.316;2023-02-02T02:02:45;94528.34;;;4.87;85.49
6090;BME280;3073;42.660;23.316;2023-02-02T02:05:17;94527.44;;;4.61;85.51
6090;BME280;3073;42.660;23.316;2023-02-02T02:07:48;94513.25;;;4.60;85.91
6090;BME280;3073;42.660;23.316;2023-02-02T02:10:16;94521.03;;;4.59;85.59
6090;BME280;3073;42.660;23.316;2023-02-02T02:12:43;94519.66;;;4.63;85.58
6090;BME280;3073;42.660;23.316;2023-02-02T02:15:10;94526.09;;;4.52;88.06
6090;BME280;3073;42.660;23.316;2023-02-02T02:18:03;94514.44;;;4.51;87.58
6090;BME280;3073;42.660;23.316;2023-02-02T02:20:55;94517.16;;;4.56;87.94
6090;BME280;3073;42.660;23.316;2023-02-02T02:24:12;94515.63;;;4.42;90.58
6090;BME280;3073;42.660;23.316;2023-02-02T02:27:37;94518.16;;;4.42;90.55
6090;BME280;3073;42.660;23.316;2023-02-02T02:33:36;94528.84;;;4.38;91.39
6090;BME280;3073;42.660;23.316;2023-02-02T02:36:13;94521.47;;;4.36;92.22
6090;BME280;3073;42.660;23.316;2023-02-02T02:38:49;94524.97;;;4.35;90.01
6090;BME280;3073;42.660;23.316;2023-02-02T02:41:20;94521.44;;;4.49;89.32
6090;BME280;3073;42.660;23.316;2023-02-02T02:43:51;94533.72;;;4.33;90.19
6090;BME280;3073;42.660;23.316;2023-02-02T02:46:19;94524.00;;;4.30;90.83
6090;BME280;3073;42.660;23.316;2023-02-02T02:48:47;94533.31;;;4.42;88.92
6090;BME280;3073;42.660;23.316;2023-02-02T02:51:48;94519.50;;;4.45;89.04
6090;BME280;3073;42.660;23.316;2023-02-02T02:54:17;94523.38;;;4.47;90.04
6090;BME280;3073;42.660;23.316;2023-02-02T02:56:55;94527.06;;;4.51;90.25
6090;BME280;3073;42.660;23.316;2023-02-02T02:59:34;94529.06;;;4.36;89.13
6090;BME280;3073;42.660;23.316;2023-02-02T03:02:14;94525.78;;;4.16;90.05
6090;BME280;3073;42.660;23.316;2023-02-02T03:04:57;94523.03;;;4.24;86.68
6090;BME280;3073;42.660;23.316;2023-02-02T03:07:30;94522.25;;;4.43;85.05
6090;BME280;3073;42.660;23.316;2023-02-02T03:10:02;94513.69;;;4.31;86.29
6090;BME280;3073;42.660;23.316;2023-02-02T03:12:29;94517.59;;;4.27;86.71
6090;BME280;3073;42.660;23.316;2023-02-02T03:14:56;94521.50;;;4.30;86.19
6090;BME280;3073;42.660;23.316;2023-02-02T03:17:25;94519.50;;;4.45;85.83
6090;BME280;3073;42.660;23.316;2023-02-02T03:19:54;94516.03;;;4.39;85.36
6090;BME280;3073;42.660;23.316;2023-02-02T03:22:21;94510.75;;;4.47;84.74
6090;BME280;3073;42.660;23.316;2023-02-02T03:24:48;94513.66;;;4.44;83.11
6090;BME280;3073;42.660;23.316;2023-02-02T03:27:15;94509.63;;;4.30;89.14
6090;BME280;3073;42.660;23.316;2023-02-02T03:29:41;94509.47;;;3.99;92.04
6090;BME280;3073;42.660;23.316;2023-02-02T03:32:08;94514.69;;;4.17;90.69
6090;BME280;3073;42.660;23.316;2023-02-02T03:34:36;94520.72;;;4.16;92.30
6090;BME280;3073;42.660;23.316;2023-02-02T03:37:04;94506.38;;;3.97;86.94
6090;BME280;3073;42.660;23.316;2023-02-02T03:39:31;94510.78;;;4.21;81.25
6090;BME280;3073;42.660;23.316;2023-02-02T03:41:58;94517.81;;;4.19;84.07
6090;BME280;3073;42.660;23.316;2023-02-02T03:44:25;94514.31;;;4.20;90.91
6090;BME280;3073;42.660;23.316;2023-02-02T03:46:52;94513.56;;;4.00;93.49
6090;BME280;3073;42.660;23.316;2023-02-02T03:49:19;94504.81;;;3.96;94.86
6090;BME280;3073;42.660;23.316;2023-02-02T03:51:47;94497.03;;;3.97;94.47
6090;BME280;3073;42.660;23.316;2023-02-02T03:54:15;94516.44;;;3.90;92.11
6090;BME280;3073;42.660;23.316;2023-02-02T03:56:42;94507.91;;;3.98;86.37
6090;BME280;3073;42.660;23.316;2023-02-02T03:59:09;94516.06;;;4.26;81.42
6090;BME280;3073;42.660;23.316;2023-02-02T04:01:36;94533.50;;;4.28;81.58
6090;BME280;3073;42.660;23.316;2023-02-02T04:04:03;94531.59;;;4.17;85.75
6090;BME280;3073;42.660;23.316;2023-02-02T04:06:29;94520.13;;;4.07;92.52
6090;BME280;3073;42.660;23.316;2023-02-02T04:08:56;94539.94;;;4.10;96.58
6090;BME280;3073;42.660;23.316;2023-02-02T04:11:25;94529.25;;;3.76;100.00
6090;BME280;3073;42.660;23.316;2023-02-02T04:13:52;94536.22;;;3.74;100.00
6090;BME280;3073;42.660;23.316;2023-02-02T04:16:19;94526.31;;;3.52;100.00
6090;BME280;3073;42.660;23.316;2023-02-02T04:18:46;94532.69;;;3.42;100.00
6090;BME280;3073;42.660;23.316;2023-02-02T04:21:12;94539.09;;;3.44;100.00
6090;BME280;3073;42.660;23.316;2023-02-02T04:23:39;94539.47;;;3.41;100.00
6090;BME280;3073;42.660;23.316;2023-02-02T04:26:06;94536.53;;;3.31;100.00
6090;BME280;3073;42.660;23.316;2023-02-02T04:28:34;94543.31;;;3.24;100.00
6090;BME280;3073;42.660;23.316;2023-02-02T04:31:01;94548.16;;;3.19;100.00
6090;BME280;3073;42.660;23.316;2023-02-02T04:33:28;94539.97;;;3.10;100.00
6090;BME280;3073;42.660;23.316;2023-02-02T04:35:55;94537.63;;;3.02;100.00
6090;BME280;3073;42.660;23.316;2023-02-02T04:38:22;94533.78;;;3.06;100.00
6090;BME280;3073;42.660;23.316;2023-02-02T04:40:49;94529.47;;;3.00;100.00
6090;BME280;3073;42.660;23.316;2023-02-02T04:43:15;94522.69;;;3.01;100.00
6090;BME280;3073;42.660;23.316;2023-02-02T04:45:44;94544.94;;;2.91;100.00
6090;BME280;3073;42.660;23.316;2023-02-02T04:48:10;94546.44;;;3.26;100.00
6090;BME280;3073;42.660;23.316;2023-02-02T04:50:37;94546.25;;;3.34;100.00
6090;BME280;3073;42.660;23.316;2023-02-02T04:53:04;94552.09;;;3.41;95.96
6090;BME280;3073;42.660;23.316;2023-02-02T04:55:35;94546.31;;;3.74;90.50
6090;BME280;3073;42.660;23.316;2023-02-02T04:58:02;94539.34;;;3.89;88.58
6090;BME280;3073;42.660;23.316;2023-02-02T05:00:29;94545.97;;;3.90;88.61
6090;BME280;3073;42.660;23.316;2023-02-02T05:02:57;94559.91;;;3.73;99.01
6090;BME280;3073;42.660;23.316;2023-02-02T05:05:23;94546.69;;;3.57;100.00
6090;BME280;3073;42.660;23.316;2023-02-02T05:07:51;94555.22;;;3.43;100.00
6090;BME280;3073;42.660;23.316;2023-02-02T05:10:17;94555.50;;;3.21;100.00
6090;BME280;3073;42.660;23.316;2023-02-02T05:12:45;94547.34;;;3.12;100.00
6090;BME280;3073;42.660;23.316;2023-02-02T05:15:12;94548.91;;;3.13;100.00
6090;BME280;3073;42.660;23.316;2023-02-02T05:17:38;94540.06;;;3.30;100.00
6090;BME280;3073;42.660;23.316;2023-02-02T05:20:08;94554.38;;;3.23;100.00
6090;BME280;3073;42.660;23.316;2023-02-02T05:22:35;94531.00;;;2.95;100.00
6090;BME280;3073;42.660;23.316;2023-02-02T05:25:03;94532.56;;;2.96;99.58
6090;BME280;3073;42.660;23.316;2023-02-02T05:27:30;94524.38;;;3.54;86.57
6090;BME280;3073;42.660;23.316;2023-02-02T05:29:56;94532.75;;;3.88;83.50
6090;BME280;3073;42.660;23.316;2023-02-02T05:32:23;94526.91;;;3.81;81.10
6090;BME280;3073;42.660;23.316;2023-02-02T05:34:50;94527.91;;;3.80;80.09
6090;BME280;3073;42.660;23.316;2023-02-02T05:37:24;94527.28;;;3.51;87.24
6090;BME280;3073;42.660;23.316;2023-02-02T05:39:51;94538.53;;;3.49;96.08
6090;BME280;3073;42.660;23.316;2023-02-02T05:42:19;94545.66;;;3.26;100.00
6090;BME280;3073;42.660;23.316;2023-02-02T05:44:46;94553.97;;;3.20;100.00
6090;BME280;3073;42.660;23.316;2023-02-02T05:47:13;94550.78;;;2.98;100.00
6090;BME280;3073;42.660;23.316;2023-02-02T05:49:40;94551.53;;;3.46;86.49
6090;BME280;3073;42.660;23.316;2023-02-02T05:52:13;94542.66;;;3.89;81.12
6090;BME280;3073;42.660;23.316;2023-02-02T05:54:43;94544.03;;;3.98;80.22
6090;BME280;3073;42.660;23.316;2023-02-02T05:57:10;94541.09;;;4.01;76.33
6090;BME280;3073;42.660;23.316;2023-02-02T05:59:37;94556.47;;;4.13;74.96
6090;BME280;3073;42.660;23.316;2023-02-02T06:02:04;94554.69;;;4.07;76.91
6090;BME280;3073;42.660;23.316;2023-02-02T06:04:31;94551.19;;;4.08;84.24
6090;BME280;3073;42.660;23.316;2023-02-02T06:06:58;94549.84;;;4.19;75.37
6090;BME280;3073;42.660;23.316;2023-02-02T06:09:24;94567.50;;;4.25;74.92
6090;BME280;3073;42.660;23.316;2023-02-02T06:11:53;94548.69;;;3.95;87.48
6090;BME280;3073;42.660;23.316;2023-02-02T06:14:20;94565.09;;;3.51;98.03
6090;BME280;3073;42.660;23.316;2023-02-02T06:16:47;94560.00;;;3.32;100.00
6090;BME280;3073;42.660;23.316;2023-02-02T06:19:13;94557.47;;;3.25;100.00
6090;BME280;3073;42.660;23.316;2023-02-02T06:21:40;94554.16;;;3.25;100.00
6090;BME280;3073;42.660;23.316;2023-02-02T06:24:07;94577.97;;;3.09;100.00
6090;BME280;3073;42.660;23.316;2023-02-02T06:26:35;94571.75;;;3.05;100.00
6090;BME280;3073;42.660;23.316;2023-02-02T06:29:03;94573.78;;;3.29;100.00
6090;BME280;3073;42.660;23.316;2023-02-02T06:31:32;94579.50;;;3.71;91.84
6090;BME280;3073;42.660;23.316;2023-02-02T06:33:59;94587.31;;;3.89;86.69
6090;BME280;3073;42.660;23.316;2023-02-02T06:36:26;94585.38;;;4.37;78.63
6090;BME280;3073;42.660;23.316;2023-02-02T06:38:54;94571.97;;;4.56;76.71
6090;BME280;3073;42.660;23.316;2023-02-02T06:41:23;94599.13;;;4.67;74.61
6090;BME280;3073;42.660;23.316;2023-02-02T06:43:50;94597.34;;;4.81;73.58
6090;BME280;3073;42.660;23.316;2023-02-02T06:46:18;94600.06;;;4.99;70.71
6090;BME280;3073;42.660;23.316;2023-02-02T06:48:45;94582.72;;;5.02;69.41
6090;BME280;3073;42.660;23.316;2023-02-02T06:51:12;94579.81;;;5.05;68.18
6090;BME280;3073;42.660;23.316;2023-02-02T06:53:39;94593.75;;;5.21;68.18
6090;BME280;3073;42.660;23.316;2023-02-02T06:56:08;94595.28;;;5.29;69.02
6090;BME280;3073;42.660;23.316;2023-02-02T06:58:37;94596.63;;;5.31;67.87
6090;BME280;3073;42.660;23.316;2023-02-02T07:01:05;94601.31;;;5.28;67.31
6090;BME280;3073;42.660;23.316;2023-02-02T07:03:34;94616.31;;;5.29;67.91
6090;BME280;3073;42.660;23.316;2023-02-02T07:06:10;94601.94;;;5.23;67.17
6090;BME280;3073;42.660;23.316;2023-02-02T07:08:37;94618.03;;;5.29;67.80
6090;BME280;3073;42.660;23.316;2023-02-02T07:11:04;94608.88;;;5.34;67.91
6090;BME280;3073;42.660;23.316;2023-02-02T07:13:30;94623.88;;;5.29;68.47
6090;BME280;3073;42.660;23.316;2023-02-02T07:15:57;94606.59;;;5.26;68.67
6090;BME280;3073;42.660;23.316;2023-02-02T07:18:24;94599.56;;;5.28;68.43
6090;BME280;3073;42.660;23.316;2023-02-02T07:20:53;94604.56;;;5.41;68.50
6090;BME280;3073;42.660;23.316;2023-02-02T07:23:20;94614.63;;;5.54;67.98
6090;BME280;3073;42.660;23.316;2023-02-02T07:25:47;94617.16;;;5.54;67.86
6090;BME280;3073;42.660;23.316;2023-02-02T07:28:14;94609.56;;;5.54;68.36
6090;BME280;3073;42.660;23.316;2023-02-02T07:30:41;94622.28;;;5.41;67.85
6090;BME280;3073;42.660;23.316;2023-02-02T07:33:07;94628.44;;;5.58;68.20
6090;BME280;3073;42.660;23.316;2023-02-02T07:35:34;94626.78;;;5.39;68.17
6090;BME280;3073;42.660;23.316;2023-02-02T07:38:02;94626.47;;;5.60;68.77
6090;BME280;3073;42.660;23.316;2023-02-02T07:40:29;94621.47;;;5.92;68.55
6090;BME280;3073;42.660;23.316;2023-02-02T07:42:56;94627.56;;;6.15;67.44
6090;BME280;3073;42.660;23.316;2023-02-02T07:45:25;94623.00;;;5.99;68.31
6090;BME280;3073;42.660;23.316;2023-02-02T07:47:56;94621.91;;;6.20;65.98
6090;BME280;3073;42.660;23.316;2023-02-02T07:50:23;94605.56;;;6.16;66.04
6090;BME280;3073;42.660;23.316;2023-02-02T07:52:51;94607.28;;;6.47;66.23
6090;BME280;3073;42.660;23.316;2023-02-02T07:55:19;94600.03;;;6.50;65.16
6090;BME280;3073;42.660;23.316;2023-02-02T07:57:46;94594.13;;;6.56;65.56
6090;BME280;3073;42.660;23.316;2023-02-02T08:00:14;94588.66;;;6.35;64.59
6090;BME280;3073;42.660;23.316;2023-02-02T08:02:41;94594.84;;;6.39;64.66
6090;BME280;3073;42.660;23.316;2023-02-02T08:05:08;94582.59;;;6.79;64.36
6090;BME280;3073;42.660;23.316;2023-02-02T08:07:35;94576.41;;;6.93;63.37
6090;BME280;3073;42.660;23.316;2023-02-02T08:10:02;94581.47;;;7.11;63.30
6090;BME280;3073;42.660;23.316;2023-02-02T08:12:30;94560.41;;;7.58;62.73
6090;BME280;3073;42.660;23.316;2023-02-02T08:14:57;94574.75;;;8.36;59.85
6090;BME280;3073;42.660;23.316;2023-02-02T08:17:24;94569.69;;;8.70;59.68
6090;BME280;3073;42.660;23.316;2023-02-02T08:19:51;94569.47;;;8.72;59.04
6090;BME280;3073;42.660;23.316;2023-02-02T08:22:18;94567.56;;;9.42;57.31
6090;BME280;3073;42.660;23.316;2023-02-02T08:24:44;94565.75;;;9.14;58.06
6090;BME280;3073;42.660;23.316;2023-02-02T08:27:14;94564.78;;;9.04;58.37
6090;BME280;3073;42.660;23.316;2023-02-02T08:29:43;94561.19;;;8.53;58.92
6090;BME280;3073;42.660;23.316;2023-02-02T08:32:10;94559.84;;;8.39;59.60
6090;BME280;3073;42.660;23.316;2023-02-02T08:34:37;94554.16;;;9.07;58.41
6090;BME280;3073;42.660;23.316;2023-02-02T08:37:05;94549.75;;;8.91;57.99
6090;BME280;3073;42.660;23.316;2023-02-02T08:39:32;94554.66;;;8.81;58.07
6090;BME280;3073;42.660;23.316;2023-02-02T08:41:58;94560.47;;;8.23;59.67
6090;BME280;3073;42.660;23.316;2023-02-02T08:44:25;94558.03;;;8.16;60.18
6090;BME280;3073;42.660;23.316;2023-02-02T08:46:53;94562.72;;;7.90;61.22
6090;BME280;3073;42.660;23.316;2023-02-02T08:49:20;94549.03;;;7.91;64.80
6090;BME280;3073;42.660;23.316;2023-02-02T08:51:47;94543.97;;;7.61;66.13
6090;BME280;3073;42.660;23.316;2023-02-02T08:54:14;94547.09;;;7.15;67.62
6090;BME280;3073;42.660;23.316;2023-02-02T08:56:41;94531.75;;;7.10;67.40
6090;BME280;3073;42.660;23.316;2023-02-02T08:59:08;94534.25;;;6.37;74.57
6090;BME280;3073;42.660;23.316;2023-02-02T09:01:35;94545.47;;;5.98;78.90
6090;BME280;3073;42.660;23.316;2023-02-02T09:04:05;94548.13;;;5.79;82.74
6090;BME280;3073;42.660;23.316;2023-02-02T09:06:34;94554.75;;;5.80;86.09
6090;BME280;3073;42.660;23.316;2023-02-02T09:09:02;94562.91;;;5.82;86.90
6090;BME280;3073;42.660;23.316;2023-02-02T09:11:29;94550.50;;;5.74;87.55
6090;BME280;3073;42.660;23.316;2023-02-02T09:13:57;94535.00;;;5.63;89.38
6090;BME280;3073;42.660;23.316;2023-02-02T09:16:25;94533.53;;;5.43;91.82
6090;BME280;3073;42.660;23.316;2023-02-02T09:18:53;94537.16;;;5.22;96.08
6090;BME280;3073;42.660;23.316;2023-02-02T09:21:21;94541.03;;;5.18;100.00
6090;BME280;3073;42.660;23.316;2023-02-02T09:23:49;94543.22;;;5.08;100.00
6090;BME280;3073;42.660;23.316;2023-02-02T09:26:19;94530.41;;;5.09;100.00
6090;BME280;3073;42.660;23.316;2023-02-02T09:28:49;94556.28;;;4.98;100.00
6090;BME280;3073;42.660;23.316;2023-02-02T09:31:16;94546.47;;;5.22;100.00
6090;BME280;3073;42.660;23.316;2023-02-02T09:33:43;94529.41;;;5.17;100.00
6090;BME280;3073;42.660;23.316;2023-02-02T09:36:12;94530.88;;;5.31;100.00
6090;BME280;3073;42.660;23.316;2023-02-02T09:38:42;94532.22;;;5.40;100.00
6090;BME280;3073;42.660;23.316;2023-02-02T09:44:26;94513.41;;;6.17;92.43
6090;BME280;3073;42.660;23.316;2023-02-02T09:47:09;94525.66;;;7.29;86.61
6090;BME280;3073;42.660;23.316;2023-02-02T09:49:51;94528.41;;;9.03;76.39
6090;BME280;3073;42.660;23.316;2023-02-02T09:52:24;94512.72;;;9.23;70.29
6090;BME280;3073;42.660;23.316;2023-02-02T09:54:58;94499.22;;;10.29;65.33
6090;BME280;3073;42.660;23.316;2023-02-02T09:57:30;94512.63;;;10.08;64.78
6090;BME280;3073;42.660;23.316;2023-02-02T09:59:59;94522.13;;;10.62;63.24
6090;BME280;3073;42.660;23.316;2023-02-02T10:02:29;94509.78;;;10.98;61.17
6090;BME280;3073;42.660;23.316;2023-02-02T10:05:03;94510.97;;;11.12;58.17
6090;BME280;3073;42.660;23.316;2023-02-02T10:07:36;94497.16;;;10.86;59.24
6090;BME280;3073;42.660;23.316;2023-02-02T10:10:12;94491.75;;;11.53;58.43
6090;BME280;3073;42.660;23.316;2023-02-02T10:12:46;94500.22;;;12.54;56.15
6090;BME280;3073;42.660;23.316;2023-02-02T10:15:19;94503.38;;;13.28;53.67
6090;BME280;3073;42.660;23.316;2023-02-02T10:17:52;94484.16;;;12.68;53.21
6090;BME280;3073;42.660;23.316;2023-02-02T10:20:35;94481.44;;;14.03;50.17
6090;BME280;3073;42.660;23.316;2023-02-02T10:23:13;94481.38;;;13.37;46.88
6090;BME280;3073;42.660;23.316;2023-02-02T10:25:48;94470.63;;;12.73;49.05
6090;BME280;3073;42.660;23.316;2023-02-02T10:28:18;94467.28;;;13.34;48.10
6090;BME280;3073;42.660;23.316;2023-02-02T10:30:52;94475.19;;;13.23;46.47
6090;BME280;3073;42.660;23.316;2023-02-02T10:33:28;94468.25;;;12.61;47.20
6090;BME280;3073;42.660;23.316;2023-02-02T10:36:02;94466.22;;;11.04;49.76
6090;BME280;3073;42.660;23.316;2023-02-02T10:38:37;94459.84;;;11.28;50.00
6090;BME280;3073;42.660;23.316;2023-02-02T10:41:13;94442.59;;;10.92;50.19
6090;BME280;3073;42.660;23.316;2023-02-02T10:44:08;94440.94;;;10.59;51.70
6090;BME280;3073;42.660;23.316;2023-02-02T10:46:40;94430.53;;;10.22;51.92
6090;BME280;3073;42.660;23.316;2023-02-02T10:49:19;94420.63;;;10.26;51.97
6090;BME280;3073;42.660;23.316;2023-02-02T10:51:50;94414.69;;;8.92;53.09
6090;BME280;3073;42.660;23.316;2023-02-02T10:54:43;94402.28;;;9.91;52.87
6090;BME280;3073;42.660;23.316;2023-02-02T10:57:19;94390.13;;;9.98;52.44
6090;BME280;3073;42.660;23.316;2023-02-02T10:59:55;94382.50;;;11.06;50.22
6090;BME280;3073;42.660;23.316;2023-02-02T11:02:24;94374.16;;;10.02;51.35
6090;BME280;3073;42.660;23.316;2023-02-02T11:04:51;94389.44;;;10.02;51.62
6090;BME280;3073;42.660;23.316;2023-02-02T11:07:35;94390.88;;;10.31;50.97
6090;BME280;3073;42.660;23.316;2023-02-02T11:10:02;94384.97;;;9.93;51.51
6090;BME280;3073;42.660;23.316;2023-02-02T11:12:33;94382.63;;;10.46;50.68
6090;BME280;3073;42.660;23.316;2023-02-02T11:15:02;94385.41;;;10.45;50.03
6090;BME280;3073;42.660;23.316;2023-02-02T11:17:30;94385.72;;;10.26;50.02
6090;BME280;3073;42.660;23.316;2023-02-02T11:19:57;94371.72;;;10.29;50.55
6090;BME280;3073;42.660;23.316;2023-02-02T11:22:28;94374.16;;;10.62;49.97
6090;BME280;3073;42.660;23.316;2023-02-02T11:24:59;94368.53;;;10.17;50.09
6090;BME280;3073;42.660;23.316;2023-02-02T11:27:27;94356.34;;;10.94;49.53
6090;BME280;3073;42.660;23.316;2023-02-02T11:30:00;94361.09;;;11.07;48.91
6090;BME280;3073;42.660;23.316;2023-02-02T11:32:35;94352.44;;;10.60;49.50
6090;BME280;3073;42.660;23.316;2023-02-02T11:35:19;94351.97;;;10.41;49.62
6090;BME280;3073;42.660;23.316;2023-02-02T11:37:56;94337.16;;;11.18;48.06
6090;BME280;3073;42.660;23.316;2023-02-02T11:40:37;94353.88;;;10.29;49.14
6090;BME280;3073;42.660;23.316;2023-02-02T11:43:15;94329.59;;;10.97;48.70
6090;BME280;3073;42.660;23.316;2023-02-02T11:45:46;94342.63;;;10.73;49.14
6090;BME280;3073;42.660;23.316;2023-02-02T11:48:19;94337.63;;;10.83;48.73
6090;BME280;3073;42.660;23.316;2023-02-02T11:50:49;94343.84;;;10.93;48.52
6090;BME280;3073;42.660;23.316;2023-02-02T11:53:24;94330.94;;;10.51;48.49
6090;BME280;3073;42.660;23.316;2023-02-02T11:55:52;94336.22;;;10.06;49.87
6090;BME280;3073;42.660;23.316;2023-02-02T11:58:22;94323.56;;;9.72;50.80
6090;BME280;3073;42.660;23.316;2023-02-02T12:00:59;94328.00;;;10.42;50.35
6090;BME280;3073;42.660;23.316;2023-02-02T12:03:29;94329.56;;;11.23;49.40
6090;BME280;3073;42.660;23.316;2023-02-02T12:05:57;94332.50;;;11.42;48.07
6090;BME280;3073;42.660;23.316;2023-02-02T12:08:27;94323.53;;;10.54;48.50
6090;BME280;3073;42.660;23.316;2023-02-02T12:10:58;94329.13;;;10.51;48.82
6090;BME280;3073;42.660;23.316;2023-02-02T12:13:39;94322.97;;;10.04;49.61
6090;BME280;3073;42.660;23.316;2023-02-02T12:16:22;94316.16;;;10.79;49.31
6090;BME280;3073;42.660;23.316;2023-02-02T12:19:17;94324.91;;;10.62;49.78
6090;BME280;3073;42.660;23.316;2023-02-02T12:21:54;94325.25;;;9.83;51.33
6090;BME280;3073;42.660;23.316;2023-02-02T12:24:28;94332.16;;;9.00;52.71
6090;BME280;3073;42.660;23.316;2023-02-02T12:27:05;94325.19;;;9.45;52.75
6090;BME280;3073;42.660;23.316;2023-02-02T12:29:44;94320.91;;;9.84;52.34
6090;BME280;3073;42.660;23.316;2023-02-02T12:32:33;94324.16;;;9.79;52.04
6090;BME280;3073;42.660;23.316;2023-02-02T12:38:11;94339.47;;;9.46;50.88
6090;BME280;3073;42.660;23.316;2023-02-02T12:40:50;94327.59;;;9.52;49.47
6090;BME280;3073;42.660;23.316;2023-02-02T12:43:32;94335.19;;;9.30;50.02
6090;BME280;3073;42.660;23.316;2023-02-02T12:46:16;94332.78;;;9.40;49.95
6090;BME280;3073;42.660;23.316;2023-02-02T12:48:59;94337.31;;;9.38;50.21
6090;BME280;3073;42.660;23.316;2023-02-02T12:51:50;94334.38;;;8.96;51.10
6090;BME280;3073;42.660;23.316;2023-02-02T12:54:32;94321.72;;;9.01;51.16
6090;BME280;3073;42.660;23.316;2023-02-02T12:57:11;94333.66;;;9.01;52.11
6090;BME280;3073;42.660;23.316;2023-02-02T13:02:35;94332.22;;;9.21;52.06
6090;BME280;3073;42.660;23.316;2023-02-02T13:05:32;94327.84;;;9.17;52.63
6090;BME280;3073;42.660;23.316;2023-02-02T13:08:07;94320.88;;;9.12;52.22
6090;BME280;3073;42.660;23.316;2023-02-02T13:10:38;94322.75;;;9.17;52.62
6090;BME280;3073;42.660;23.316;2023-02-02T13:13:08;94333.16;;;9.15;52.49
6090;BME280;3073;42.660;23.316;2023-02-02T13:15:39;94325.75;;;9.14;52.09
6090;BME280;3073;42.660;23.316;2023-02-02T13:18:12;94336.00;;;9.52;52.07
6090;BME280;3073;42.660;23.316;2023-02-02T13:20:44;94339.56;;;9.35;51.82
6090;BME280;3073;42.660;23.316;2023-02-02T13:23:18;94330.22;;;9.07;52.65
6090;BME280;3073;42.660;23.316;2023-02-02T13:25:49;94331.28;;;9.11;53.00
6090;BME280;3073;42.660;23.316;2023-02-02T13:28:30;94326.03;;;9.01;52.95
6090;BME280;3073;42.660;23.316;2023-02-02T13:30:59;94316.09;;;8.99;51.85
6090;BME280;3073;42.660;23.316;2023-02-02T13:33:31;94326.06;;;8.72;51.49
6090;BME280;3073;42.660;23.316;2023-02-02T13:36:05;94334.72;;;8.88;51.32
6090;BME280;3073;42.660;23.316;2023-02-02T13:38:34;94326.78;;;8.85;51.08
6090;BME280;3073;42.660;23.316;2023-02-02T13:41:08;94321.34;;;8.64;51.41
6090;BME280;3073;42.660;23.316;2023-02-02T13:43:42;94330.47;;;8.49;51.33
6090;BME280;3073;42.660;23.316;2023-02-02T13:46:20;94326.44;;;8.36;51.70
6090;BME280;3073;42.660;23.316;2023-02-02T13:48:55;94322.91;;;8.25;52.12
6090;BME280;3073;42.660;23.316;2023-02-02T13:51:48;94338.38;;;8.36;52.46